createdAt,value
2023-09-24T00:01:54.283Z,3.08
2023-09-24T00:04:57.321Z,3.92
2023-09-24T00:07:59.800Z,4.07
2023-09-24T00:11:04.091Z,4.10
2023-09-24T00:14:06.713Z,3.58
2023-09-24T00:17:09.986Z,3.90
2023-09-24T00:20:12.791Z,4.10
2023-09-24T00:23:18.037Z,3.90
2023-09-24T00:26:20.540Z,3.97
2023-09-24T00:29:24.750Z,4.35
2023-09-24T00:32:27.343Z,4.22
2023-09-24T00:35:31.321Z,4.13
2023-09-24T00:38:33.954Z,3.93
2023-09-24T00:41:37.732Z,4.30
2023-09-24T00:44:40.244Z,4.30
2023-09-24T00:47:44.395Z,4.60
2023-09-24T00:50:46.936Z,4.65
2023-09-24T00:53:50.480Z,4.83
2023-09-24T00:56:54.134Z,4.75
2023-09-24T00:59:56.690Z,4.55
2023-09-24T01:02:59.406Z,4.68
2023-09-24T01:06:02.025Z,4.38
2023-09-24T01:09:07.589Z,4.90
2023-09-24T01:12:21.739Z,4.57
2023-09-24T01:15:26.538Z,3.95
2023-09-24T01:18:29.336Z,4.45
2023-09-24T01:21:33.613Z,4.82
2023-09-24T01:24:36.407Z,4.40
2023-09-24T01:27:39.079Z,4.35
2023-09-24T01:30:41.741Z,4.70
2023-09-24T01:33:45.295Z,5.13
2023-09-24T01:36:48.161Z,4.68
2023-09-24T01:39:52.988Z,4.83
2023-09-24T01:43:01.548Z,5.07
2023-09-24T01:46:07.954Z,5.03
2023-09-24T01:49:11.576Z,5.32
2023-09-24T01:52:15.388Z,5.03
2023-09-24T01:55:17.976Z,5.10
2023-09-24T01:58:20.468Z,5.45
2023-09-24T02:01:24.028Z,4.97
2023-09-24T02:04:26.650Z,4.93
2023-09-24T02:07:29.174Z,5.07
2023-09-24T02:10:31.760Z,5.83
2023-09-24T02:13:34.126Z,5.40
2023-09-24T02:16:39.863Z,5.38
2023-09-24T02:19:45.967Z,5.32
2023-09-24T02:22:52.213Z,5.28
2023-09-24T02:25:54.892Z,5.27
2023-09-24T02:28:57.465Z,5.13
2023-09-24T02:32:00.046Z,5.90
2023-09-24T02:35:04.305Z,5.40
2023-09-24T02:38:06.959Z,5.90
2023-09-24T02:41:09.387Z,5.90
2023-09-24T02:44:12.075Z,6.20
2023-09-24T02:47:16.019Z,5.75
2023-09-24T02:50:19.485Z,5.70
2023-09-24T02:53:22.031Z,5.60
2023-09-24T02:56:24.697Z,4.80
2023-09-24T02:59:27.245Z,5.57
2023-09-24T03:02:29.922Z,5.22
2023-09-24T03:05:33.666Z,5.60
2023-09-24T03:08:37.431Z,5.65
2023-09-24T03:11:40.181Z,5.70
2023-09-24T03:14:43.101Z,5.53
2023-09-24T03:17:48.012Z,5.38
2023-09-24T03:20:51.841Z,5.70
2023-09-24T03:23:55.306Z,5.88
2023-09-24T03:26:58.866Z,6.00
2023-09-24T03:30:02.207Z,5.30
2023-09-24T03:33:06.170Z,5.07
2023-09-24T03:36:11.626Z,4.72
2023-09-24T03:39:14.706Z,5.15
2023-09-24T03:42:17.312Z,4.43
2023-09-24T03:45:20.850Z,5.20
2023-09-24T03:48:23.816Z,4.63
2023-09-24T03:51:27.304Z,4.45
2023-09-24T03:54:29.927Z,4.60
2023-09-24T03:57:32.566Z,4.53
2023-09-24T04:00:35.146Z,4.85
2023-09-24T04:03:38.689Z,4.97
2023-09-24T04:06:42.072Z,5.07
2023-09-24T04:09:45.034Z,4.70
2023-09-24T04:12:48.126Z,4.90
2023-09-24T04:15:53.960Z,4.80
2023-09-24T04:18:57.078Z,5.25
2023-09-24T04:21:59.653Z,5.03
2023-09-24T04:25:03.264Z,5.20
2023-09-24T04:28:06.020Z,4.47
2023-09-24T04:31:08.424Z,4.80
2023-09-24T04:34:13.767Z,4.57
2023-09-24T04:37:17.820Z,4.03
2023-09-24T04:40:20.703Z,3.55
2023-09-24T04:43:23.452Z,4.00
2023-09-24T04:46:27.159Z,3.67
2023-09-24T04:49:29.661Z,4.05
2023-09-24T04:52:33.041Z,3.58
2023-09-24T04:55:35.419Z,3.88
2023-09-24T04:58:37.894Z,4.17
2023-09-24T05:01:40.369Z,4.07
2023-09-24T05:04:44.422Z,3.60
2023-09-24T05:07:46.857Z,4.22
2023-09-24T05:10:50.978Z,4.13
2023-09-24T05:13:53.624Z,4.13
2023-09-24T05:16:56.098Z,4.10
2023-09-24T05:19:58.816Z,3.90
2023-09-24T05:23:01.809Z,3.58
2023-09-24T05:26:04.183Z,3.13
2023-09-24T05:29:06.877Z,3.23
2023-09-24T05:32:09.475Z,3.60
2023-09-24T05:35:12.333Z,2.92
2023-09-24T05:38:14.716Z,3.60
2023-09-24T05:41:17.602Z,3.22
2023-09-24T05:44:21.714Z,3.50
2023-09-24T05:47:24.330Z,3.55
2023-09-24T05:50:26.874Z,3.25
2023-09-24T05:53:29.396Z,3.50
2023-09-24T05:56:31.961Z,3.22
2023-09-24T05:59:34.644Z,3.33
2023-09-24T06:02:37.175Z,3.60
2023-09-24T06:05:40.237Z,3.03
2023-09-24T06:08:42.789Z,3.30
2023-09-24T06:11:47.171Z,2.90
2023-09-24T06:14:49.688Z,2.53
2023-09-24T06:17:52.336Z,2.70
2023-09-24T06:20:55.435Z,2.58
2023-09-24T06:23:58.713Z,2.75
2023-09-24T06:27:01.260Z,2.45
2023-09-24T06:30:06.074Z,2.60
2023-09-24T06:33:08.748Z,2.42
2023-09-24T06:36:11.190Z,2.63
2023-09-24T06:39:15.525Z,2.80
2023-09-24T06:42:18.007Z,2.65
2023-09-24T06:45:20.384Z,2.80
2023-09-24T06:48:23.914Z,3.08
2023-09-24T06:51:26.464Z,2.75
2023-09-24T06:54:29.001Z,3.42
2023-09-24T06:57:32.763Z,3.33
2023-09-24T07:00:35.540Z,3.50
2023-09-24T07:03:38.546Z,3.47
2023-09-24T07:06:42.183Z,3.80
2023-09-24T07:09:47.394Z,3.15
2023-09-24T07:12:49.749Z,4.05
2023-09-24T07:15:52.156Z,3.97
2023-09-24T07:18:55.217Z,3.88
2023-09-24T07:21:58.643Z,3.90
2023-09-24T07:25:01.109Z,3.65
2023-09-24T07:28:03.683Z,3.55
2023-09-24T07:31:15.574Z,4.70
2023-09-24T07:34:18.055Z,4.45
2023-09-24T07:37:20.696Z,3.85
2023-09-24T07:40:23.159Z,3.80
2023-09-24T07:43:25.589Z,3.40
2023-09-24T07:46:28.066Z,3.50
2023-09-24T07:49:30.709Z,3.30
2023-09-24T07:52:35.268Z,3.60
2023-09-24T07:55:38.066Z,3.58
2023-09-24T07:58:43.391Z,2.20
2023-09-24T08:01:45.781Z,2.30
2023-09-24T08:04:48.186Z,1.85
2023-09-24T08:07:50.631Z,2.10
2023-09-24T08:10:53.493Z,1.48
2023-09-24T08:13:56.394Z,1.63
2023-09-24T08:16:59.218Z,1.80
2023-09-24T08:20:01.733Z,1.60
2023-09-24T08:23:04.839Z,1.30
2023-09-24T08:26:07.322Z,1.10
2023-09-24T08:29:10.170Z,0.90
2023-09-24T08:32:12.607Z,1.20
2023-09-24T08:35:15.081Z,0.82
2023-09-24T08:38:17.429Z,1.00
2023-09-24T08:41:19.927Z,0.98
2023-09-24T08:44:22.615Z,0.60
2023-09-24T08:47:25.050Z,0.80
2023-09-24T08:50:27.500Z,0.73
2023-09-24T08:53:30.971Z,0.50
2023-09-24T08:56:33.483Z,0.77
2023-09-24T08:59:37.041Z,0.35
2023-09-24T09:02:44.393Z,0.40
2023-09-24T09:05:47.787Z,0.70
2023-09-24T09:08:53.813Z,0.50
2023-09-24T09:11:56.888Z,0.80
2023-09-24T09:14:59.501Z,1.00
2023-09-24T09:18:02.462Z,0.50
2023-09-24T09:21:05.258Z,0.57
2023-09-24T09:24:21.533Z,0.75
2023-09-24T09:27:24.038Z,1.08
2023-09-24T09:30:26.513Z,0.82
2023-09-24T09:33:30.053Z,0.57
2023-09-24T09:36:36.341Z,0.30
2023-09-24T09:39:38.760Z,0.30
2023-09-24T09:42:41.224Z,0.40
2023-09-24T09:45:46.623Z,0.40
2023-09-24T09:48:55.952Z,0.60
2023-09-24T09:52:02.252Z,0.45
2023-09-24T09:55:05.992Z,0.20
2023-09-24T09:58:21.610Z,0.70
2023-09-24T10:01:25.873Z,0.60
2023-09-24T10:04:30.732Z,0.40
2023-09-24T10:07:37.580Z,0.80
2023-09-24T10:10:41.841Z,1.25
2023-09-24T10:13:45.655Z,1.17
2023-09-24T10:16:48.529Z,1.17
2023-09-24T10:19:52.211Z,0.93
2023-09-24T10:22:57.270Z,0.90
2023-09-24T10:26:06.106Z,1.08
2023-09-24T10:29:09.503Z,0.93
2023-09-24T10:32:16.231Z,0.90
2023-09-24T10:35:19.125Z,0.60
2023-09-24T10:38:21.733Z,1.02
2023-09-24T10:41:24.428Z,0.57
2023-09-24T10:44:28.984Z,0.80
2023-09-24T10:47:32.626Z,0.80
2023-09-24T10:50:35.178Z,0.77
2023-09-24T10:53:37.828Z,1.15
2023-09-24T10:56:40.324Z,0.90
2023-09-24T10:59:42.708Z,1.10
2023-09-24T11:02:46.736Z,1.10
2023-09-24T11:05:50.019Z,1.13
2023-09-24T11:08:52.837Z,0.98
2023-09-24T11:11:55.309Z,1.00
2023-09-24T11:15:14.510Z,1.10
2023-09-24T11:18:18.115Z,1.10
2023-09-24T11:21:21.045Z,1.33
2023-09-24T11:24:23.989Z,1.10
2023-09-24T11:27:26.430Z,1.02
2023-09-24T11:30:47.453Z,1.40
2023-09-24T11:33:57.706Z,1.27
2023-09-24T11:37:00.284Z,1.30
2023-09-24T11:40:02.764Z,1.50
2023-09-24T11:43:15.306Z,1.50
2023-09-24T11:46:27.158Z,1.50
2023-09-24T11:49:29.649Z,1.40
2023-09-24T11:52:33.170Z,1.57
2023-09-24T11:55:36.225Z,1.80
2023-09-24T11:58:39.564Z,1.60
2023-09-24T12:01:42.618Z,1.75
2023-09-24T12:04:47.028Z,2.00
2023-09-24T12:07:51.700Z,2.30
2023-09-24T12:10:54.223Z,1.75
2023-09-24T12:13:57.726Z,1.70
2023-09-24T12:17:00.192Z,1.83
2023-09-24T12:20:02.893Z,2.30
2023-09-24T12:23:07.590Z,2.23
2023-09-24T12:26:10.090Z,2.15
2023-09-24T12:29:12.562Z,2.28
2023-09-24T12:32:15.144Z,2.47
2023-09-24T12:35:17.835Z,2.60
2023-09-24T12:38:20.302Z,2.83
2023-09-24T12:41:23.573Z,3.13
2023-09-24T12:44:26.021Z,2.67
2023-09-24T12:47:34.249Z,2.72
2023-09-24T12:50:37.112Z,2.65
2023-09-24T12:53:42.156Z,3.57
2023-09-24T12:56:44.967Z,2.75
2023-09-24T12:59:47.494Z,3.60
2023-09-24T13:02:50.129Z,3.33
2023-09-24T13:05:52.684Z,2.70
2023-09-24T13:08:55.182Z,2.90
2023-09-24T13:11:59.658Z,3.20
2023-09-24T13:15:02.384Z,2.95
2023-09-24T13:18:05.130Z,3.10
2023-09-24T13:21:07.730Z,3.13
2023-09-24T13:24:10.254Z,2.63
2023-09-24T13:27:12.719Z,2.72
2023-09-24T13:30:15.214Z,2.50
2023-09-24T13:33:17.830Z,2.85
2023-09-24T13:36:20.450Z,2.60
2023-09-24T13:39:23.327Z,2.27
2023-09-24T13:42:25.843Z,3.70
2023-09-24T13:45:28.941Z,3.53
2023-09-24T13:48:31.953Z,4.00
2023-09-24T13:51:37.263Z,3.35
2023-09-24T13:54:40.203Z,2.87
2023-09-24T13:57:42.660Z,2.88
2023-09-24T14:00:53.286Z,2.88
2023-09-24T14:03:56.125Z,3.00
2023-09-24T14:06:58.952Z,3.25
2023-09-24T14:10:20.120Z,3.80
2023-09-24T14:13:22.592Z,3.65
2023-09-24T14:16:25.003Z,3.28
2023-09-24T14:19:27.505Z,3.30
2023-09-24T14:22:29.880Z,3.47
2023-09-24T14:25:33.590Z,2.97
2023-09-24T14:28:36.113Z,3.10
2023-09-24T14:31:38.542Z,2.60
2023-09-24T14:34:41.017Z,3.53
2023-09-24T14:37:43.503Z,2.30
2023-09-24T14:40:45.923Z,2.30
2023-09-24T14:43:48.537Z,2.40
2023-09-24T14:46:51.082Z,1.73
2023-09-24T14:49:53.525Z,2.00
2023-09-24T14:52:56.087Z,1.90
2023-09-24T14:56:01.496Z,1.83
2023-09-24T14:59:04.081Z,2.00
2023-09-24T15:02:06.654Z,2.00
2023-09-24T15:05:09.630Z,1.67
2023-09-24T15:08:12.266Z,1.90
2023-09-24T15:11:14.738Z,1.83
2023-09-24T15:14:18.840Z,1.85
2023-09-24T15:17:21.333Z,1.52
2023-09-24T15:20:23.786Z,1.77
2023-09-24T15:23:26.617Z,1.35
2023-09-24T15:26:29.174Z,1.60
2023-09-24T15:29:31.754Z,1.70
2023-09-24T15:32:34.273Z,1.70
2023-09-24T15:35:37.234Z,1.73
2023-09-24T15:38:39.702Z,1.45
2023-09-24T15:41:45.268Z,2.07
2023-09-24T15:44:47.757Z,2.00
2023-09-24T15:47:50.413Z,1.77
2023-09-24T15:50:53.311Z,1.52
2023-09-24T15:53:55.929Z,1.70
2023-09-24T15:56:58.358Z,2.00
2023-09-24T16:00:00.844Z,2.13
2023-09-24T16:03:03.732Z,1.58
2023-09-24T16:06:06.367Z,2.20
2023-09-24T16:09:08.992Z,2.15
2023-09-24T16:12:11.518Z,2.07
2023-09-24T16:15:15.414Z,1.95
2023-09-24T16:18:17.927Z,1.75
2023-09-24T16:21:20.452Z,1.98
2023-09-24T16:24:22.933Z,1.88
2023-09-24T16:27:25.408Z,2.10
2023-09-24T16:30:27.882Z,2.40
2023-09-24T16:33:30.395Z,2.10
2023-09-24T16:36:34.794Z,2.10
2023-09-24T16:39:37.523Z,1.95
2023-09-24T16:42:40.122Z,3.30
2023-09-24T16:45:49.865Z,2.00
2023-09-24T16:48:52.393Z,2.10
2023-09-24T16:51:54.837Z,1.65
2023-09-24T16:54:57.257Z,1.85
2023-09-24T16:58:00.183Z,1.57
2023-09-24T17:01:02.720Z,1.08
2023-09-24T17:04:05.597Z,1.33
2023-09-24T17:07:08.124Z,1.60
2023-09-24T17:10:11.968Z,1.38
2023-09-24T17:13:16.147Z,1.40
2023-09-24T17:16:20.360Z,1.65
2023-09-24T17:19:23.925Z,1.65
2023-09-24T17:22:27.593Z,1.55
2023-09-24T17:25:30.062Z,1.65
2023-09-24T17:28:32.476Z,1.67
2023-09-24T17:31:35.048Z,1.90
2023-09-24T17:34:37.598Z,2.10
2023-09-24T17:37:40.174Z,2.50
2023-09-24T17:40:42.857Z,2.92
2023-09-24T17:43:45.341Z,3.57
2023-09-24T17:46:48.532Z,3.75
2023-09-24T17:49:51.007Z,3.88
2023-09-24T17:52:53.585Z,3.85
2023-09-24T17:55:56.684Z,4.00
2023-09-24T17:58:59.053Z,4.00
2023-09-24T18:02:01.651Z,3.97
2023-09-24T18:05:04.597Z,4.40
2023-09-24T18:08:08.303Z,4.18
2023-09-24T18:11:10.815Z,4.22
2023-09-24T18:14:13.493Z,4.60
2023-09-24T18:17:15.983Z,3.92
2023-09-24T18:20:18.449Z,4.32
2023-09-24T18:23:21.237Z,4.45
2023-09-24T18:26:23.675Z,4.43
2023-09-24T18:29:26.138Z,4.33
2023-09-24T18:32:28.617Z,4.60
2023-09-24T18:35:31.157Z,4.13
2023-09-24T18:38:33.734Z,4.40
2023-09-24T18:41:36.211Z,4.50
2023-09-24T18:44:38.790Z,4.77
2023-09-24T18:47:41.356Z,4.57
2023-09-24T18:50:44.157Z,4.60
2023-09-24T18:53:47.421Z,4.75
2023-09-24T18:56:50.231Z,4.28
2023-09-24T18:59:53.452Z,4.73
2023-09-24T19:02:56.139Z,4.85
2023-09-24T19:05:58.750Z,5.45
2023-09-24T19:09:01.306Z,5.30
2023-09-24T19:12:03.773Z,5.18
2023-09-24T19:15:08.114Z,5.23
2023-09-24T19:18:12.060Z,5.25
2023-09-24T19:21:14.505Z,5.00
2023-09-24T19:24:17.012Z,5.57
2023-09-24T19:27:20.165Z,5.35
2023-09-24T19:30:22.864Z,5.57
2023-09-24T19:33:25.444Z,5.78
2023-09-24T19:36:28.038Z,5.78
2023-09-24T19:39:30.642Z,5.80
2023-09-24T19:42:35.351Z,5.00
2023-09-24T19:45:37.973Z,5.50
2023-09-24T19:48:40.673Z,5.07
2023-09-24T19:51:43.552Z,5.47
2023-09-24T19:54:46.137Z,4.72
2023-09-24T19:57:48.613Z,5.45
2023-09-24T20:00:51.496Z,5.13
2023-09-24T20:03:53.974Z,5.22
2023-09-24T20:06:59.577Z,4.75
2023-09-24T20:10:02.717Z,4.65
2023-09-24T20:13:05.308Z,5.22
2023-09-24T20:16:07.913Z,4.73
2023-09-24T20:19:10.781Z,5.35
2023-09-24T20:22:13.239Z,5.50
2023-09-24T20:25:27.589Z,4.57
2023-09-24T20:28:41.871Z,5.28
2023-09-24T20:31:50.646Z,5.57
2023-09-24T20:34:53.184Z,4.95
2023-09-24T20:37:55.628Z,5.63
2023-09-24T20:41:15.180Z,5.15
2023-09-24T20:44:17.786Z,5.47
2023-09-24T20:47:20.998Z,4.70
2023-09-24T20:50:23.420Z,5.45
2023-09-24T20:53:25.950Z,5.30
2023-09-24T20:56:28.836Z,5.43
2023-09-24T20:59:31.858Z,4.75
2023-09-24T21:02:34.328Z,5.17
2023-09-24T21:05:37.200Z,4.57
2023-09-24T21:08:39.593Z,4.38
2023-09-24T21:11:42.052Z,5.03
2023-09-24T21:14:44.842Z,5.03
2023-09-24T21:17:47.445Z,4.70
2023-09-24T21:20:53.067Z,4.22
2023-09-24T21:23:55.468Z,4.45
2023-09-24T21:26:58.092Z,4.40
2023-09-24T21:30:00.721Z,4.00
2023-09-24T21:33:03.370Z,4.27
2023-09-24T21:36:06.950Z,4.00
2023-09-24T21:39:09.707Z,4.20
2023-09-24T21:42:12.985Z,4.13
2023-09-24T21:45:15.482Z,4.40
2023-09-24T21:48:17.944Z,4.20
2023-09-24T21:51:20.520Z,4.15
2023-09-24T21:54:23.006Z,3.95
2023-09-24T21:57:25.539Z,3.70
2023-09-24T22:00:32.144Z,3.60
2023-09-24T22:03:34.911Z,3.87
2023-09-24T22:06:37.605Z,3.90
2023-09-24T22:09:40.757Z,3.83
2023-09-24T22:12:43.168Z,3.35
2023-09-24T22:15:46.710Z,3.97
2023-09-24T22:18:49.684Z,3.67
2023-09-24T22:21:52.836Z,3.92
2023-09-24T22:24:55.331Z,3.55
2023-09-24T22:27:57.774Z,4.25
2023-09-24T22:31:06.840Z,3.80
2023-09-24T22:34:09.321Z,3.20
2023-09-24T22:37:11.806Z,4.05
2023-09-24T22:40:15.666Z,3.75
2023-09-24T22:43:26.087Z,3.70
2023-09-24T22:46:29.527Z,3.55
2023-09-24T22:49:32.064Z,3.70
2023-09-24T22:52:34.945Z,3.30
2023-09-24T22:55:37.421Z,3.20
2023-09-24T22:58:39.905Z,4.20
2023-09-24T23:01:42.452Z,4.57
2023-09-24T23:04:44.926Z,3.53
2023-09-24T23:07:47.544Z,3.75
2023-09-24T23:10:50.016Z,3.85
2023-09-24T23:13:52.392Z,3.75
2023-09-24T23:16:54.884Z,3.45
2023-09-24T23:19:57.346Z,3.40
2023-09-24T23:22:59.850Z,3.30
2023-09-24T23:26:02.201Z,2.92
2023-09-24T23:29:05.212Z,3.40
2023-09-24T23:32:07.671Z,3.40
2023-09-24T23:35:10.147Z,2.97
2023-09-24T23:38:12.625Z,3.08
2023-09-24T23:41:15.068Z,2.92
2023-09-24T23:44:17.443Z,3.40
2023-09-24T23:47:19.923Z,3.30
2023-09-24T23:50:22.304Z,3.63
2023-09-24T23:53:24.670Z,3.60
2023-09-24T23:56:27.386Z,3.03
2023-09-24T23:59:29.865Z,3.58
